METAR Data
IDs: Format: Raw Decoded Include TAF

Data at: 1735 UTC 26 Oct 2021

KIKG 261715Z AUTO 14012G17KT 10SM BKN019 BKN025 29/24 A2984 RMK AO2 T02850243
KIKG 261655Z AUTO 12014G17KT 10SM OVC017 29/25 A2984 RMK AO2 T02850246
KIKG 261635Z AUTO 13009G15KT 10SM OVC013 28/25 A2986 RMK AO2 T02770248
KIKG 261615Z AUTO 13009KT 10SM BKN009 BKN110 27/25 A2986 RMK AO2 T02710250
KIKG 261555Z AUTO 12011KT 10SM BKN009 BKN023 OVC110 27/25 A2986 RMK AO2 T02650250
KIKG 261535Z AUTO 13009KT 3SM BR OVC007 26/25 A2988 RMK AO2 T02600248
KIKG 261515Z AUTO 13008KT 3SM BR OVC007 26/25 A2989 RMK AO2 T02570247
KIKG 261455Z AUTO 12009KT 4SM BR OVC007 26/25 A2988 RMK AO2 T02550247
KIKG 261435Z AUTO 12009KT 2 1/2SM BR OVC009 25/25 A2989 RMK AO2 T02540246
KIKG 261415Z AUTO 12007KT 3SM BR BKN005 OVC011 25/25 A2989 RMK AO2 T02500245
KIKG 261355Z AUTO 13005KT 3SM BR SCT005 OVC011 25/24 A2989 RMK AO2 T02460242
KIKG 261335Z AUTO 13006KT 3SM BR SCT003 OVC013 24/24 A2988 RMK AO2 T02430240
KIKG 261315Z AUTO 12004KT 3SM BR SCT003 BKN009 BKN016 24/24 A2988 RMK AO2 T02410238
KIKG 261255Z AUTO 12005KT 5SM BR OVC009 24/24 A2988 RMK AO2 T02430240
KIKG 261235Z AUTO 12005KT 7SM OVC009 25/24 A2988 RMK AO2 T02450240
KIKG 261215Z AUTO 12005KT 10SM OVC009 25/24 A2988 RMK AO2 T02450241
KIKG 261155Z AUTO 12004KT 7SM OVC009 24/24 A2988 RMK AO2 T02410240 10241 20230
KIKG 261135Z AUTO 11004KT 7SM OVC009 24/24 A2988 RMK AO2 T02400238
KIKG 261115Z AUTO 00000KT 2 1/2SM BR BKN011 OVC017 24/24 A2988 RMK AO2 T02350235
KIKG 261055Z AUTO 00000KT 4SM BR BKN011 BKN016 23/23 A2988 RMK AO2 T02320231
KIKG 261035Z AUTO 00000KT 3SM BR SCT015 23/23 A2988 RMK AO2 T02300229
KIKG 261015Z AUTO 00000KT 4SM BR SCT018 24/23 A2988 RMK AO2 T02350233
KIKG 260955Z AUTO 00000KT 5SM BR SCT018 24/24 A2988 RMK AO2 T02360235
KIKG 260935Z AUTO 00000KT 5SM BR CLR 24/24 A2988 RMK AO2 T02360235
KIKG 260915Z AUTO 00000KT 5SM BR CLR 24/23 A2988 RMK AO2 T02360234
KIKG 260855Z AUTO 00000KT 7SM CLR 24/24 A2989 RMK AO2 T02370235
KIKG 260835Z AUTO 00000KT 7SM CLR 24/24 A2989 RMK AO2 T02370235
KIKG 260815Z AUTO 12003KT 5SM BR CLR 24/23 A2989 RMK AO2 T02360233
KIKG 260755Z AUTO 14003KT 7SM CLR 24/23 A2990 RMK AO2 T02360234
KIKG 260735Z AUTO 00000KT 7SM CLR 24/23 A2991 RMK AO2 T02350232
KIKG 260715Z AUTO 00000KT 7SM CLR 24/23 A2991 RMK AO2 T02350233
KIKG 260655Z AUTO 00000KT 7SM CLR 24/23 A2991 RMK AO2 T02370234
KIKG 260635Z AUTO 00000KT 7SM CLR 24/24 A2992 RMK AO2 T02380235
KIKG 260615Z AUTO 00000KT 10SM CLR 24/24 A2992 RMK AO2 T02380235
KIKG 260555Z AUTO 00000KT 10SM SCT013 BKN033 24/24 A2993 RMK AO2 T02400236 10275 20235 403330216
KIKG 260535Z AUTO 12003KT 7SM OVC033 24/24 A2993 RMK AO2 T02400235
KIKG 260515Z AUTO 00000KT 7SM BKN031 24/23 A2994 RMK AO2 T02360232
KIKG 260455Z AUTO 12003KT 7SM CLR 24/23 A2994 RMK AO2 T02360232
KIKG 260435Z AUTO 00000KT 10SM CLR 24/23 A2994 RMK AO2 T02360232
KIKG 260415Z AUTO 00000KT 10SM CLR 24/23 A2994 RMK AO2 T02350231
KIKG 260355Z AUTO 00000KT 10SM CLR 24/23 A2994 RMK AO2 T02370232
KIKG 260335Z AUTO 10003KT 10SM CLR 24/23 A2994 RMK AO2 T02380232
KIKG 260315Z AUTO 10003KT 10SM CLR 24/23 A2994 RMK AO2 T02410234
KIKG 260255Z AUTO 09004KT 7SM CLR 24/24 A2994 RMK AO2 T02410235
KIKG 260235Z AUTO 10003KT 10SM CLR 25/24 A2994 RMK AO2 T02450236
KIKG 260215Z AUTO 11004KT 10SM CLR 25/24 A2994 RMK AO2 T02490238
KIKG 260155Z AUTO 10005KT 10SM CLR 25/24 A2993 RMK AO2 T02510239
KIKG 260135Z AUTO 10005KT 10SM CLR 26/24 A2993 RMK AO2 T02550239
KIKG 260115Z AUTO 10006KT 10SM CLR 26/24 A2993 RMK AO2 T02560236
KIKG 260055Z AUTO 09005KT 10SM CLR 26/24 A2992 RMK AO2 T02600235
KIKG 260035Z AUTO 10006KT 10SM CLR 27/24 A2991 RMK AO2 T02650235
KIKG 260015Z AUTO 10008KT 10SM CLR 27/24 A2991 RMK AO2 T02710237
KIKG 252355Z AUTO 11006KT 10SM CLR 28/24 A2991 RMK AO2 T02760241 10333 20276
KIKG 252335Z AUTO 11008KT 10SM CLR 29/24 A2990 RMK AO2 T02860242
KIKG 252315Z AUTO 11010KT 10SM CLR 30/24 A2989 RMK AO2 T02950241
KIKG 252255Z AUTO 11007KT 10SM CLR 30/24 A2989 RMK AO2 T03020240
KIKG 252235Z AUTO 12011KT 10SM SCT044 31/24 A2988 RMK AO2 T03120238
KIKG 252215Z AUTO 11010KT 10SM SCT044 32/23 A2988 RMK AO2 T03240233
KIKG 252155Z AUTO 10006KT 10SM SCT045 32/23 A2988 RMK AO2 T03210231
KIKG 252135Z AUTO 08008KT 10SM SCT047 33/23 A2988 RMK AO2 T03270231
KIKG 252115Z AUTO 08009KT 10SM SCT047 33/22 A2988 RMK AO2 T03260224
KIKG 252055Z AUTO 09006KT 10SM SCT047 33/22 A2988 RMK AO2 T03330222
KIKG 252035Z AUTO 10007KT 10SM SCT045 33/22 A2988 RMK AO2 T03280220
KIKG 252015Z AUTO 11006KT 10SM SCT045 33/22 A2989 RMK AO2 T03310223
KIKG 251955Z AUTO 14006KT 10SM SCT045 32/22 A2989 RMK AO2 T03240221
KIKG 251935Z AUTO 15004KT 10SM CLR 33/23 A2990 RMK AO2 T03260225
KIKG 251915Z AUTO 00000KT 10SM CLR 32/23 A2991 RMK AO2 T03200225
KIKG 251855Z AUTO 16004KT 10SM CLR 32/22 A2992 RMK AO2 T03200222
KIKG 251835Z AUTO 11006KT 10SM CLR 32/23 A2993 RMK AO2 T03160226
KIKG 251815Z AUTO 13006KT 10SM CLR 31/23 A2994 RMK AO2 T03120226
KIKG 251755Z AUTO 13005KT 10SM CLR 31/23 A2994 RMK AO2 T03080228 10311 20216
KIKG 251735Z AUTO 15007KT 10SM CLR 31/23 A2995 RMK AO2 T03050227
KIKG 251715Z AUTO 16003KT 10SM SCT025 30/23 A2996 RMK AO2 T02990232
KIKG 251655Z AUTO 17005KT 10SM SCT023 29/23 A2996 RMK AO2 T02930234
KIKG 251635Z AUTO 17005KT 10SM BKN021 29/24 A2997 RMK AO2 T02900236
KIKG 251615Z AUTO 16003KT 10SM BKN019 28/24 A2997 RMK AO2 T02800238
KIKG 251555Z AUTO 15005KT 10SM BKN017 27/24 A2997 RMK AO2 T02730239
KIKG 251535Z AUTO 16004KT 10SM SCT013 27/24 A2997 RMK AO2 T02700243
KIKG 251515Z AUTO 16006KT 10SM SCT004 SCT011 SCT017 26/25 A2997 RMK AO2 T02590245
KIKG 251455Z AUTO 15005KT 7SM SCT004 BKN015 25/25 A2997 RMK AO2 T02490248
KIKG 251435Z AUTO 00000KT 4SM BR BKN002 OVC015 24/24 A2997 RMK AO2 T02410241
KIKG 251415Z AUTO 14003KT 1/2SM FG OVC002 24/24 A2996 RMK AO2 T02350235
KIKG 251355Z AUTO 00000KT 1/2SM FG OVC002 23/23 A2995 RMK AO2 T02310231
KIKG 251335Z AUTO 00000KT 3/4SM BR OVC002 23/23 A2994 RMK AO2 T02290229
KIKG 251315Z AUTO 00000KT 1/2SM FG OVC002 22/22 A2994 RMK AO2 T02240224
KIKG 251255Z AUTO 00000KT 1/4SM FG OVC002 22/22 A2993 RMK AO2 T02200220
KIKG 251235Z AUTO 00000KT 1/4SM FG OVC002 22/22 A2992 RMK AO2 T02170217
KIKG 251215Z AUTO 00000KT 1/2SM FG OVC002 22/22 A2991 RMK AO2 T02200220
KIKG 251155Z AUTO 00000KT 1/2SM FG BKN002 OVC007 23/23 A2991 RMK AO2 7//// T02260226 10236 20221
KIKG 251135Z AUTO 00000KT 1/2SM FG OVC002 23/23 A2991 RMK AO2 T02300230
KIKG 251115Z AUTO 00000KT 3/4SM BR OVC002 23/23 A2991 RMK AO2 T02310231
KIKG 251055Z AUTO 16003KT 1/2SM FG OVC002 24/24 A2990 RMK AO2 T02350235
KIKG 251035Z AUTO 17004KT 1/2SM FG OVC002 24/24 A2990 RMK AO2 T02360236
KIKG 251015Z AUTO 00000KT 3/4SM BR OVC002 24/24 A2990 RMK AO2 T02350235
KIKG 250955Z AUTO 00000KT 1/2SM FG OVC002 23/23 A2990 RMK AO2 T02330233
KIKG 250935Z AUTO 17003KT 1/4SM FG OVC002 23/23 A2990 RMK AO2 T02340234
KIKG 250915Z AUTO 00000KT 1/4SM FG OVC002 23/23 A2990 RMK AO2 T02300230
KIKG 250855Z AUTO 15003KT 1/4SM FG OVC002 23/23 A2990 RMK AO2 T02250225
KIKG 250835Z AUTO 16003KT 1/2SM FG OVC002 23/23 A2990 RMK AO2 T02270227
KIKG 250815Z AUTO 00000KT 1/4SM FG OVC002 23/23 A2991 RMK AO2 T02250225
KIKG 250755Z AUTO 00000KT 1/4SM FG OVC002 23/23 A2991 RMK AO2 T02250225
KIKG 250735Z AUTO 00000KT 1/4SM FG OVC002 23/23 A2991 RMK AO2 T02250225
KIKG 250715Z AUTO 00000KT 3/4SM BR OVC002 22/22 A2991 RMK AO2 T02220222
KIKG 250655Z AUTO 00000KT 1/2SM FG OVC002 22/22 A2991 RMK AO2 T02210221
KIKG 250635Z AUTO 00000KT 3/4SM BR OVC002 23/23 A2991 RMK AO2 T02250225
KIKG 250615Z AUTO 00000KT 1/2SM FG OVC002 23/23 A2990 RMK AO2 T02290228
KIKG 250555Z AUTO 00000KT 3/4SM BR OVC002 23/23 A2990 RMK AO2 T02300230 10277 20230